Terminal Aerodrome Forecast
Issued by NWS Hastings, NE

Home | Current Version | Previous Version | Text Only | Print | Product List | Glossary On
Versions: 1 2 3 4 5 6 7 8 9 10 11 12 13
000
FTUS43 KGID 281357 AAA
TAFGRI
TAF AMD
KGRI 281357Z 2814/2912 06017G26KT 3SM -DZ BR OVC005
     FM282000 03013G20KT P6SM OVC012
     FM290000 03014KT P6SM OVC008=

USA.gov is the U.S. government's official web portal to all federal, state and local government web resources and services.